sensor_id;sensor_type;location;lat;lon;timestamp;temperature;humidity
71175;DHT22;58876;51.994;4.472;2024-01-30T00:00:11;11.23;78.50
71175;DHT22;58876;51.994;4.472;2024-01-30T00:02:37;11.33;77.93
71175;DHT22;58876;51.994;4.472;2024-01-30T00:05:03;11.28;78.31
71175;DHT22;58876;51.994;4.472;2024-01-30T00:07:29;11.21;78.25
71175;DHT22;58876;51.994;4.472;2024-01-30T00:09:54;11.19;78.65
71175;DHT22;58876;51.994;4.472;2024-01-30T00:12:20;11.21;78.41
71175;DHT22;58876;51.994;4.472;2024-01-30T00:14:46;11.21;78.26
71175;DHT22;58876;51.994;4.472;2024-01-30T00:17:11;11.23;77.92
71175;DHT22;58876;51.994;4.472;2024-01-30T00:19:37;11.18;78.26
71175;DHT22;58876;51.994;4.472;2024-01-30T00:22:02;11.22;78.23
71175;DHT22;58876;51.994;4.472;2024-01-30T00:24:28;11.18;78.49
71175;DHT22;58876;51.994;4.472;2024-01-30T00:26:54;11.33;77.83
71175;DHT22;58876;51.994;4.472;2024-01-30T00:29:19;11.22;78.07
71175;DHT22;58876;51.994;4.472;2024-01-30T00:31:45;10.98;78.59
71175;DHT22;58876;51.994;4.472;2024-01-30T00:34:11;11.01;78.92
71175;DHT22;58876;51.994;4.472;2024-01-30T00:36:37;11.18;78.77
71175;DHT22;58876;51.994;4.472;2024-01-30T00:39:02;10.95;79.06
71175;DHT22;58876;51.994;4.472;2024-01-30T00:41:32;10.90;79.21
71175;DHT22;58876;51.994;4.472;2024-01-30T00:43:57;10.91;79.15
71175;DHT22;58876;51.994;4.472;2024-01-30T00:46:23;10.87;79.08
71175;DHT22;58876;51.994;4.472;2024-01-30T00:48:48;11.14;78.57
71175;DHT22;58876;51.994;4.472;2024-01-30T00:51:14;11.21;77.99
71175;DHT22;58876;51.994;4.472;2024-01-30T00:53:40;11.18;78.23
71175;DHT22;58876;51.994;4.472;2024-01-30T00:56:07;11.23;77.92
71175;DHT22;58876;51.994;4.472;2024-01-30T00:58:33;11.16;77.83
71175;DHT22;58876;51.994;4.472;2024-01-30T01:00:58;11.19;77.82
71175;DHT22;58876;51.994;4.472;2024-01-30T01:03:24;11.28;77.58
71175;DHT22;58876;51.994;4.472;2024-01-30T01:05:49;11.25;77.62
71175;DHT22;58876;51.994;4.472;2024-01-30T01:08:15;11.19;77.90
71175;DHT22;58876;51.994;4.472;2024-01-30T01:10:40;11.35;77.50
71175;DHT22;58876;51.994;4.472;2024-01-30T01:13:06;11.19;77.58
71175;DHT22;58876;51.994;4.472;2024-01-30T01:15:31;11.19;77.82
71175;DHT22;58876;51.994;4.472;2024-01-30T01:17:57;11.18;77.95
71175;DHT22;58876;51.994;4.472;2024-01-30T01:20:22;11.28;77.60
71175;DHT22;58876;51.994;4.472;2024-01-30T01:22:48;11.35;77.27
71175;DHT22;58876;51.994;4.472;2024-01-30T01:25:13;11.43;77.25
71175;DHT22;58876;51.994;4.472;2024-01-30T01:27:39;11.44;76.83
71175;DHT22;58876;51.994;4.472;2024-01-30T01:30:10;11.33;76.89
71175;DHT22;58876;51.994;4.472;2024-01-30T01:32:37;11.40;77.13
71175;DHT22;58876;51.994;4.472;2024-01-30T01:35:04;11.43;76.77
71175;DHT22;58876;51.994;4.472;2024-01-30T01:37:31;11.40;76.86
71175;DHT22;58876;51.994;4.472;2024-01-30T01:39:56;11.38;76.96
71175;DHT22;58876;51.994;4.472;2024-01-30T01:42:22;11.35;77.16
71175;DHT22;58876;51.994;4.472;2024-01-30T01:44:47;11.23;77.54
71175;DHT22;58876;51.994;4.472;2024-01-30T01:47:14;11.22;77.74
71175;DHT22;58876;51.994;4.472;2024-01-30T01:49:40;11.22;77.77
71175;DHT22;58876;51.994;4.472;2024-01-30T01:52:06;11.28;77.45
71175;DHT22;58876;51.994;4.472;2024-01-30T01:54:32;11.19;77.93
71175;DHT22;58876;51.994;4.472;2024-01-30T01:56:59;11.25;77.58
71175;DHT22;58876;51.994;4.472;2024-01-30T01:59:25;11.21;77.99
71175;DHT22;58876;51.994;4.472;2024-01-30T02:01:52;11.26;77.77
71175;DHT22;58876;51.994;4.472;2024-01-30T02:04:18;11.15;78.04
71175;DHT22;58876;51.994;4.472;2024-01-30T02:06:44;11.08;78.42
71175;DHT22;58876;51.994;4.472;2024-01-30T02:09:09;11.22;77.96
71175;DHT22;58876;51.994;4.472;2024-01-30T02:11:35;11.21;78.42
71175;DHT22;58876;51.994;4.472;2024-01-30T02:14:08;11.29;77.52
71175;DHT22;58876;51.994;4.472;2024-01-30T02:16:33;11.29;77.77
71175;DHT22;58876;51.994;4.472;2024-01-30T02:18:59;11.40;77.47
71175;DHT22;58876;51.994;4.472;2024-01-30T02:21:24;11.25;77.50
71175;DHT22;58876;51.994;4.472;2024-01-30T02:23:52;11.32;77.58
71175;DHT22;58876;51.994;4.472;2024-01-30T02:26:19;11.35;77.56
71175;DHT22;58876;51.994;4.472;2024-01-30T02:28:45;11.29;77.71
71175;DHT22;58876;51.994;4.472;2024-01-30T02:31:10;11.36;77.85
71175;DHT22;58876;51.994;4.472;2024-01-30T02:33:36;11.38;77.70
71175;DHT22;58876;51.994;4.472;2024-01-30T02:36:01;11.39;77.62
71175;DHT22;58876;51.994;4.472;2024-01-30T02:38:27;11.42;77.65
71175;DHT22;58876;51.994;4.472;2024-01-30T02:40:54;11.46;77.27
71175;DHT22;58876;51.994;4.472;2024-01-30T02:43:19;11.46;77.64
71175;DHT22;58876;51.994;4.472;2024-01-30T02:45:45;11.52;77.16
71175;DHT22;58876;51.994;4.472;2024-01-30T02:48:10;11.43;77.36
71175;DHT22;58876;51.994;4.472;2024-01-30T02:50:36;11.50;77.44
71175;DHT22;58876;51.994;4.472;2024-01-30T02:53:01;11.49;77.47
71175;DHT22;58876;51.994;4.472;2024-01-30T02:55:27;11.49;77.54
71175;DHT22;58876;51.994;4.472;2024-01-30T02:57:52;11.49;77.54
71175;DHT22;58876;51.994;4.472;2024-01-30T03:00:19;11.49;77.62
71175;DHT22;58876;51.994;4.472;2024-01-30T03:02:45;11.58;77.40
71175;DHT22;58876;51.994;4.472;2024-01-30T03:05:10;11.58;77.27
71175;DHT22;58876;51.994;4.472;2024-01-30T03:07:36;11.49;77.51
71175;DHT22;58876;51.994;4.472;2024-01-30T03:10:01;11.50;77.67
71175;DHT22;58876;51.994;4.472;2024-01-30T03:12:27;11.36;77.85
71175;DHT22;58876;51.994;4.472;2024-01-30T03:14:52;11.43;77.94
71175;DHT22;58876;51.994;4.472;2024-01-30T03:17:18;11.47;77.81
71175;DHT22;58876;51.994;4.472;2024-01-30T03:19:43;11.49;77.99
71175;DHT22;58876;51.994;4.472;2024-01-30T03:22:09;11.43;77.78
71175;DHT22;58876;51.994;4.472;2024-01-30T03:24:34;11.39;77.83
71175;DHT22;58876;51.994;4.472;2024-01-30T03:27:00;11.28;78.26
71175;DHT22;58876;51.994;4.472;2024-01-30T03:29:25;11.38;78.11
71175;DHT22;58876;51.994;4.472;2024-01-30T03:31:51;11.47;77.67
71175;DHT22;58876;51.994;4.472;2024-01-30T03:34:16;11.36;78.27
71175;DHT22;58876;51.994;4.472;2024-01-30T03:36:41;11.49;78.02
71175;DHT22;58876;51.994;4.472;2024-01-30T03:39:07;11.62;77.66
71175;DHT22;58876;51.994;4.472;2024-01-30T03:41:33;11.53;77.60
71175;DHT22;58876;51.994;4.472;2024-01-30T03:43:58;11.49;77.85
71175;DHT22;58876;51.994;4.472;2024-01-30T03:46:24;11.40;77.99
71175;DHT22;58876;51.994;4.472;2024-01-30T03:48:49;11.43;78.23
71175;DHT22;58876;51.994;4.472;2024-01-30T03:51:15;11.49;78.10
71175;DHT22;58876;51.994;4.472;2024-01-30T03:53:42;11.56;77.72
71175;DHT22;58876;51.994;4.472;2024-01-30T03:56:08;11.69;77.28
71175;DHT22;58876;51.994;4.472;2024-01-30T03:58:33;11.66;77.35
71175;DHT22;58876;51.994;4.472;2024-01-30T04:00:59;11.58;77.33
71175;DHT22;58876;51.994;4.472;2024-01-30T04:03:24;11.71;77.26
71175;DHT22;58876;51.994;4.472;2024-01-30T04:05:52;11.65;77.16
71175;DHT22;58876;51.994;4.472;2024-01-30T04:08:18;11.63;77.22
71175;DHT22;58876;51.994;4.472;2024-01-30T04:10:43;11.62;77.31
71175;DHT22;58876;51.994;4.472;2024-01-30T04:13:09;11.58;77.60
71175;DHT22;58876;51.994;4.472;2024-01-30T04:15:34;11.08;79.22
71175;DHT22;58876;51.994;4.472;2024-01-30T04:18:00;11.12;79.39
71175;DHT22;58876;51.994;4.472;2024-01-30T04:20:25;11.01;79.75
71175;DHT22;58876;51.994;4.472;2024-01-30T04:22:51;11.04;79.60
71175;DHT22;58876;51.994;4.472;2024-01-30T04:25:16;11.07;79.54
71175;DHT22;58876;51.994;4.472;2024-01-30T04:27:42;11.08;79.57
71175;DHT22;58876;51.994;4.472;2024-01-30T04:30:08;11.16;79.46
71175;DHT22;58876;51.994;4.472;2024-01-30T04:32:34;11.14;79.14
71175;DHT22;58876;51.994;4.472;2024-01-30T04:35:00;11.08;79.44
71175;DHT22;58876;51.994;4.472;2024-01-30T04:37:26;11.12;79.38
71175;DHT22;58876;51.994;4.472;2024-01-30T04:39:51;11.11;79.69
71175;DHT22;58876;51.994;4.472;2024-01-30T04:42:17;11.04;79.66
71175;DHT22;58876;51.994;4.472;2024-01-30T04:44:42;11.00;80.06
71175;DHT22;58876;51.994;4.472;2024-01-30T04:47:08;10.98;80.09
71175;DHT22;58876;51.994;4.472;2024-01-30T04:49:36;11.08;79.82
71175;DHT22;58876;51.994;4.472;2024-01-30T04:52:02;11.12;79.58
71175;DHT22;58876;51.994;4.472;2024-01-30T04:54:27;11.02;79.49
71175;DHT22;58876;51.994;4.472;2024-01-30T04:56:53;11.05;79.83
71175;DHT22;58876;51.994;4.472;2024-01-30T04:59:18;11.07;79.90
71175;DHT22;58876;51.994;4.472;2024-01-30T05:01:44;11.07;79.78
71175;DHT22;58876;51.994;4.472;2024-01-30T05:04:10;11.14;79.75
71175;DHT22;58876;51.994;4.472;2024-01-30T05:06:36;11.14;79.59
71175;DHT22;58876;51.994;4.472;2024-01-30T05:09:03;11.00;79.95
71175;DHT22;58876;51.994;4.472;2024-01-30T05:11:41;11.40;78.59
71175;DHT22;58876;51.994;4.472;2024-01-30T05:14:07;11.52;78.35
71175;DHT22;58876;51.994;4.472;2024-01-30T05:16:34;11.62;78.11
71175;DHT22;58876;51.994;4.472;2024-01-30T05:19:00;11.71;77.65
71175;DHT22;58876;51.994;4.472;2024-01-30T05:21:26;11.63;77.63
71175;DHT22;58876;51.994;4.472;2024-01-30T05:23:51;11.53;78.15
71175;DHT22;58876;51.994;4.472;2024-01-30T05:26:17;11.67;78.17
71175;DHT22;58876;51.994;4.472;2024-01-30T05:28:42;11.77;77.69
71175;DHT22;58876;51.994;4.472;2024-01-30T05:31:10;11.84;77.19
71175;DHT22;58876;51.994;4.472;2024-01-30T05:33:38;11.71;77.56
71175;DHT22;58876;51.994;4.472;2024-01-30T05:36:04;11.67;77.96
71175;DHT22;58876;51.994;4.472;2024-01-30T05:38:29;11.74;77.82
71175;DHT22;58876;51.994;4.472;2024-01-30T05:40:55;11.59;78.14
71175;DHT22;58876;51.994;4.472;2024-01-30T05:43:23;11.63;77.90
71175;DHT22;58876;51.994;4.472;2024-01-30T05:45:51;11.71;77.95
71175;DHT22;58876;51.994;4.472;2024-01-30T05:48:17;11.69;77.86
71175;DHT22;58876;51.994;4.472;2024-01-30T05:50:42;11.71;77.89
71175;DHT22;58876;51.994;4.472;2024-01-30T05:53:08;11.84;77.64
71175;DHT22;58876;51.994;4.472;2024-01-30T05:55:33;11.76;78.00
71175;DHT22;58876;51.994;4.472;2024-01-30T05:57:59;11.77;77.87
71175;DHT22;58876;51.994;4.472;2024-01-30T06:00:24;11.90;77.57
71175;DHT22;58876;51.994;4.472;2024-01-30T06:02:50;11.83;77.59
71175;DHT22;58876;51.994;4.472;2024-01-30T06:05:15;11.84;77.45
71175;DHT22;58876;51.994;4.472;2024-01-30T06:07:41;11.73;77.64
71175;DHT22;58876;51.994;4.472;2024-01-30T06:10:07;11.74;77.63
71175;DHT22;58876;51.994;4.472;2024-01-30T06:12:34;11.69;78.18
71175;DHT22;58876;51.994;4.472;2024-01-30T06:15:00;11.83;77.65
71175;DHT22;58876;51.994;4.472;2024-01-30T06:17:26;11.83;77.69
71175;DHT22;58876;51.994;4.472;2024-01-30T06:19:51;11.86;77.63
71175;DHT22;58876;51.994;4.472;2024-01-30T06:22:17;11.83;77.65
71175;DHT22;58876;51.994;4.472;2024-01-30T06:24:42;11.87;77.65
71175;DHT22;58876;51.994;4.472;2024-01-30T06:27:10;11.95;77.35
71175;DHT22;58876;51.994;4.472;2024-01-30T06:29:40;11.98;77.37
71175;DHT22;58876;51.994;4.472;2024-01-30T06:32:08;11.98;77.20
71175;DHT22;58876;51.994;4.472;2024-01-30T06:34:34;12.07;77.24
71175;DHT22;58876;51.994;4.472;2024-01-30T06:36:59;11.97;77.25
71175;DHT22;58876;51.994;4.472;2024-01-30T06:39:26;11.93;77.87
71175;DHT22;58876;51.994;4.472;2024-01-30T06:41:51;11.98;77.90
71175;DHT22;58876;51.994;4.472;2024-01-30T06:44:17;11.95;77.87
71175;DHT22;58876;51.994;4.472;2024-01-30T06:46:42;11.91;77.73
71175;DHT22;58876;51.994;4.472;2024-01-30T06:49:08;11.90;78.23
71175;DHT22;58876;51.994;4.472;2024-01-30T06:51:33;11.95;78.07
71175;DHT22;58876;51.994;4.472;2024-01-30T06:53:59;12.05;77.79
71175;DHT22;58876;51.994;4.472;2024-01-30T06:56:24;11.98;77.92
71175;DHT22;58876;51.994;4.472;2024-01-30T06:58:50;11.95;77.66
71175;DHT22;58876;51.994;4.472;2024-01-30T07:01:16;11.77;78.64
71175;DHT22;58876;51.994;4.472;2024-01-30T07:03:42;11.87;78.30
71175;DHT22;58876;51.994;4.472;2024-01-30T07:06:08;12.13;77.65
71175;DHT22;58876;51.994;4.472;2024-01-30T07:08:34;12.04;77.96
71175;DHT22;58876;51.994;4.472;2024-01-30T07:11:00;12.01;78.01
71175;DHT22;58876;51.994;4.472;2024-01-30T07:13:25;12.04;78.02
71175;DHT22;58876;51.994;4.472;2024-01-30T07:15:51;12.00;78.14
71175;DHT22;58876;51.994;4.472;2024-01-30T07:18:16;12.05;78.14
71175;DHT22;58876;51.994;4.472;2024-01-30T07:20:42;12.13;77.73
71175;DHT22;58876;51.994;4.472;2024-01-30T07:23:16;11.71;78.98
71175;DHT22;58876;51.994;4.472;2024-01-30T07:25:46;11.63;79.63
71175;DHT22;58876;51.994;4.472;2024-01-30T07:28:15;11.91;78.82
71175;DHT22;58876;51.994;4.472;2024-01-30T07:30:44;11.86;79.41
71175;DHT22;58876;51.994;4.472;2024-01-30T07:33:09;12.00;78.59
71175;DHT22;58876;51.994;4.472;2024-01-30T07:35:38;12.07;78.41
71175;DHT22;58876;51.994;4.472;2024-01-30T07:38:03;12.10;78.20
71175;DHT22;58876;51.994;4.472;2024-01-30T07:40:29;11.80;78.95
71175;DHT22;58876;51.994;4.472;2024-01-30T07:42:55;11.95;78.88
71175;DHT22;58876;51.994;4.472;2024-01-30T07:45:20;12.07;78.37
71175;DHT22;58876;51.994;4.472;2024-01-30T07:47:50;12.13;78.33
71175;DHT22;58876;51.994;4.472;2024-01-30T07:50:16;12.11;78.47
71175;DHT22;58876;51.994;4.472;2024-01-30T07:52:45;12.25;78.01
71175;DHT22;58876;51.994;4.472;2024-01-30T07:55:10;12.10;78.50
71175;DHT22;58876;51.994;4.472;2024-01-30T07:57:38;12.18;78.33
71175;DHT22;58876;51.994;4.472;2024-01-30T08:00:04;12.17;78.18
71175;DHT22;58876;51.994;4.472;2024-01-30T08:02:32;12.20;78.24
71175;DHT22;58876;51.994;4.472;2024-01-30T08:04:58;12.18;78.30
71175;DHT22;58876;51.994;4.472;2024-01-30T08:07:23;12.37;77.86
71175;DHT22;58876;51.994;4.472;2024-01-30T08:09:49;12.17;78.34
71175;DHT22;58876;51.994;4.472;2024-01-30T08:12:14;12.24;78.43
71175;DHT22;58876;51.994;4.472;2024-01-30T08:14:39;12.25;78.22
71175;DHT22;58876;51.994;4.472;2024-01-30T08:17:06;12.28;78.37
71175;DHT22;58876;51.994;4.472;2024-01-30T08:19:33;12.31;78.51
71175;DHT22;58876;51.994;4.472;2024-01-30T08:21:58;12.38;78.33
71175;DHT22;58876;51.994;4.472;2024-01-30T08:24:24;12.42;78.34
71175;DHT22;58876;51.994;4.472;2024-01-30T08:26:49;12.41;78.22
71175;DHT22;58876;51.994;4.472;2024-01-30T08:29:14;12.34;78.47
71175;DHT22;58876;51.994;4.472;2024-01-30T08:31:40;12.39;78.63
71175;DHT22;58876;51.994;4.472;2024-01-30T08:34:08;12.45;78.33
71175;DHT22;58876;51.994;4.472;2024-01-30T08:36:34;12.49;78.20
71175;DHT22;58876;51.994;4.472;2024-01-30T08:38:59;12.39;78.16
71175;DHT22;58876;51.994;4.472;2024-01-30T08:41:25;12.41;78.11
71175;DHT22;58876;51.994;4.472;2024-01-30T08:43:52;12.41;78.15
71175;DHT22;58876;51.994;4.472;2024-01-30T08:46:18;12.42;78.11
71175;DHT22;58876;51.994;4.472;2024-01-30T08:48:44;12.24;78.35
71175;DHT22;58876;51.994;4.472;2024-01-30T08:51:10;12.22;78.43
71175;DHT22;58876;51.994;4.472;2024-01-30T08:53:39;12.34;78.06
71175;DHT22;58876;51.994;4.472;2024-01-30T08:56:06;12.34;78.14
71175;DHT22;58876;51.994;4.472;2024-01-30T08:58:32;12.39;78.10
71175;DHT22;58876;51.994;4.472;2024-01-30T09:00:58;12.22;78.14
71175;DHT22;58876;51.994;4.472;2024-01-30T09:03:24;12.35;78.18
71175;DHT22;58876;51.994;4.472;2024-01-30T09:05:49;12.31;78.03
71175;DHT22;58876;51.994;4.472;2024-01-30T09:08:15;12.32;78.33
71175;DHT22;58876;51.994;4.472;2024-01-30T09:10:40;12.29;78.08
71175;DHT22;58876;51.994;4.472;2024-01-30T09:13:09;12.17;78.01
71175;DHT22;58876;51.994;4.472;2024-01-30T09:15:34;12.02;78.21
71175;DHT22;58876;51.994;4.472;2024-01-30T09:18:00;11.86;78.80
71175;DHT22;58876;51.994;4.472;2024-01-30T09:20:26;11.91;78.25
71175;DHT22;58876;51.994;4.472;2024-01-30T09:22:51;11.80;78.78
71175;DHT22;58876;51.994;4.472;2024-01-30T09:25:17;11.62;79.22
71175;DHT22;58876;51.994;4.472;2024-01-30T09:27:44;11.18;80.82
71175;DHT22;58876;51.994;4.472;2024-01-30T09:30:09;11.14;81.38
71175;DHT22;58876;51.994;4.472;2024-01-30T09:32:35;11.01;81.37
71175;DHT22;58876;51.994;4.472;2024-01-30T09:35:00;11.01;81.68
71175;DHT22;58876;51.994;4.472;2024-01-30T09:37:26;10.84;82.21
71175;DHT22;58876;51.994;4.472;2024-01-30T09:39:51;10.82;82.20
71175;DHT22;58876;51.994;4.472;2024-01-30T09:42:33;10.70;82.45
71175;DHT22;58876;51.994;4.472;2024-01-30T09:45:03;10.82;82.20
71175;DHT22;58876;51.994;4.472;2024-01-30T09:47:40;10.85;82.03
71175;DHT22;58876;51.994;4.472;2024-01-30T09:50:09;10.80;82.38
71175;DHT22;58876;51.994;4.472;2024-01-30T09:52:35;10.56;82.58
71175;DHT22;58876;51.994;4.472;2024-01-30T09:55:00;10.61;82.44
71175;DHT22;58876;51.994;4.472;2024-01-30T09:57:26;10.47;82.54
71175;DHT22;58876;51.994;4.472;2024-01-30T09:59:52;10.72;82.01
71175;DHT22;58876;51.994;4.472;2024-01-30T10:02:20;10.87;81.49
71175;DHT22;58876;51.994;4.472;2024-01-30T10:04:50;10.72;81.56
71175;DHT22;58876;51.994;4.472;2024-01-30T10:07:19;10.50;81.52
71175;DHT22;58876;51.994;4.472;2024-01-30T10:09:45;10.50;80.97
71175;DHT22;58876;51.994;4.472;2024-01-30T10:12:12;10.33;81.77
71175;DHT22;58876;51.994;4.472;2024-01-30T10:14:41;10.28;81.43
71175;DHT22;58876;51.994;4.472;2024-01-30T10:17:11;10.36;81.37
71175;DHT22;58876;51.994;4.472;2024-01-30T10:19:41;10.50;80.41
71175;DHT22;58876;51.994;4.472;2024-01-30T10:22:07;10.43;80.02
71175;DHT22;58876;51.994;4.472;2024-01-30T10:24:34;10.53;79.68
71175;DHT22;58876;51.994;4.472;2024-01-30T10:27:00;10.40;79.73
71175;DHT22;58876;51.994;4.472;2024-01-30T10:29:26;10.36;80.10
71175;DHT22;58876;51.994;4.472;2024-01-30T10:31:59;10.43;79.96
71175;DHT22;58876;51.994;4.472;2024-01-30T10:34:25;10.44;80.14
71175;DHT22;58876;51.994;4.472;2024-01-30T10:37:09;10.08;81.06
71175;DHT22;58876;51.994;4.472;2024-01-30T10:39:41;10.20;80.94
71175;DHT22;58876;51.994;4.472;2024-01-30T10:42:16;10.10;81.40
71175;DHT22;58876;51.994;4.472;2024-01-30T10:44:52;10.02;81.99
71175;DHT22;58876;51.994;4.472;2024-01-30T10:47:28;10.03;82.70
71175;DHT22;58876;51.994;4.472;2024-01-30T10:49:55;9.95;82.89
71175;DHT22;58876;51.994;4.472;2024-01-30T10:52:23;9.95;83.02
71175;DHT22;58876;51.994;4.472;2024-01-30T10:54:51;9.98;82.53
71175;DHT22;58876;51.994;4.472;2024-01-30T10:57:18;10.01;82.77
71175;DHT22;58876;51.994;4.472;2024-01-30T10:59:45;9.83;83.24
71175;DHT22;58876;51.994;4.472;2024-01-30T11:02:13;9.78;83.90
71175;DHT22;58876;51.994;4.472;2024-01-30T11:04:42;9.62;84.08
71175;DHT22;58876;51.994;4.472;2024-01-30T11:07:18;9.52;84.02
71175;DHT22;58876;51.994;4.472;2024-01-30T11:10:05;9.59;84.34
71175;DHT22;58876;51.994;4.472;2024-01-30T11:12:37;9.65;83.43
71175;DHT22;58876;51.994;4.472;2024-01-30T11:15:16;9.72;83.11
71175;DHT22;58876;51.994;4.472;2024-01-30T11:20:19;9.47;83.22
71175;DHT22;58876;51.994;4.472;2024-01-30T11:22:47;9.34;83.23
71175;DHT22;58876;51.994;4.472;2024-01-30T11:25:13;9.40;82.24
71175;DHT22;58876;51.994;4.472;2024-01-30T11:27:39;9.71;81.31
71175;DHT22;58876;51.994;4.472;2024-01-30T11:30:06;9.58;81.40
71175;DHT22;58876;51.994;4.472;2024-01-30T11:32:36;9.71;80.07
71175;DHT22;58876;51.994;4.472;2024-01-30T11:35:05;9.81;79.78
71175;DHT22;58876;51.994;4.472;2024-01-30T11:37:31;9.88;79.44
71175;DHT22;58876;51.994;4.472;2024-01-30T11:39:58;9.81;79.75
71175;DHT22;58876;51.994;4.472;2024-01-30T11:42:24;9.51;80.72
71175;DHT22;58876;51.994;4.472;2024-01-30T11:44:52;9.61;80.90
71175;DHT22;58876;51.994;4.472;2024-01-30T11:47:18;9.52;80.70
71175;DHT22;58876;51.994;4.472;2024-01-30T11:49:44;9.61;80.91
71175;DHT22;58876;51.994;4.472;2024-01-30T11:52:10;9.77;80.79
71175;DHT22;58876;51.994;4.472;2024-01-30T11:54:39;9.65;80.66
71175;DHT22;58876;51.994;4.472;2024-01-30T11:57:05;9.70;80.45
71175;DHT22;58876;51.994;4.472;2024-01-30T11:59:30;9.67;80.76
71175;DHT22;58876;51.994;4.472;2024-01-30T12:01:56;9.65;80.93
71175;DHT22;58876;51.994;4.472;2024-01-30T12:04:21;9.52;81.58
71175;DHT22;58876;51.994;4.472;2024-01-30T12:06:51;9.45;82.19
71175;DHT22;58876;51.994;4.472;2024-01-30T12:09:16;9.65;82.11
71175;DHT22;58876;51.994;4.472;2024-01-30T12:11:46;9.44;82.25
71175;DHT22;58876;51.994;4.472;2024-01-30T12:14:12;9.48;83.02
71175;DHT22;58876;51.994;4.472;2024-01-30T12:16:38;9.61;82.05
71175;DHT22;58876;51.994;4.472;2024-01-30T12:19:04;9.38;82.81
71175;DHT22;58876;51.994;4.472;2024-01-30T12:21:29;9.41;83.08
71175;DHT22;58876;51.994;4.472;2024-01-30T12:23:59;9.33;83.35
71175;DHT22;58876;51.994;4.472;2024-01-30T12:26:26;9.38;83.77
71175;DHT22;58876;51.994;4.472;2024-01-30T12:28:54;9.16;84.86
71175;DHT22;58876;51.994;4.472;2024-01-30T12:31:27;9.54;84.11
71175;DHT22;58876;51.994;4.472;2024-01-30T12:33:53;9.79;83.60
71175;DHT22;58876;51.994;4.472;2024-01-30T12:36:19;9.52;83.91
71175;DHT22;58876;51.994;4.472;2024-01-30T12:38:44;9.45;84.27
71175;DHT22;58876;51.994;4.472;2024-01-30T12:41:10;9.62;83.99
71175;DHT22;58876;51.994;4.472;2024-01-30T12:43:36;9.34;84.72
71175;DHT22;58876;51.994;4.472;2024-01-30T12:46:02;9.58;84.33
71175;DHT22;58876;51.994;4.472;2024-01-30T12:48:28;9.58;84.77
71175;DHT22;58876;51.994;4.472;2024-01-30T12:50:56;9.57;84.60
71175;DHT22;58876;51.994;4.472;2024-01-30T12:53:21;9.70;84.67
71175;DHT22;58876;51.994;4.472;2024-01-30T12:55:47;9.64;84.62
71175;DHT22;58876;51.994;4.472;2024-01-30T12:58:14;9.64;84.88
71175;DHT22;58876;51.994;4.472;2024-01-30T13:00:41;9.64;84.89
71175;DHT22;58876;51.994;4.472;2024-01-30T13:03:08;9.54;84.64
71175;DHT22;58876;51.994;4.472;2024-01-30T13:05:34;9.47;85.43
71175;DHT22;58876;51.994;4.472;2024-01-30T13:07:59;9.44;85.46
71175;DHT22;58876;51.994;4.472;2024-01-30T13:10:24;9.47;86.12
71175;DHT22;58876;51.994;4.472;2024-01-30T13:12:50;9.09;87.10
71175;DHT22;58876;51.994;4.472;2024-01-30T13:15:16;9.09;87.66
71175;DHT22;58876;51.994;4.472;2024-01-30T13:17:41;8.89;88.04
71175;DHT22;58876;51.994;4.472;2024-01-30T13:20:09;9.50;87.57
71175;DHT22;58876;51.994;4.472;2024-01-30T13:22:34;9.30;87.35
71175;DHT22;58876;51.994;4.472;2024-01-30T13:25:00;9.31;87.47
71175;DHT22;58876;51.994;4.472;2024-01-30T13:27:25;9.44;87.19
71175;DHT22;58876;51.994;4.472;2024-01-30T13:29:51;9.40;87.30
71175;DHT22;58876;51.994;4.472;2024-01-30T13:32:16;9.27;87.57
71175;DHT22;58876;51.994;4.472;2024-01-30T13:34:42;9.35;87.82
71175;DHT22;58876;51.994;4.472;2024-01-30T13:37:11;9.19;88.01
71175;DHT22;58876;51.994;4.472;2024-01-30T13:39:39;9.23;88.08
71175;DHT22;58876;51.994;4.472;2024-01-30T13:42:05;9.04;88.52
71175;DHT22;58876;51.994;4.472;2024-01-30T13:44:30;8.90;89.45
71175;DHT22;58876;51.994;4.472;2024-01-30T13:46:56;8.90;89.32
71175;DHT22;58876;51.994;4.472;2024-01-30T13:49:21;9.00;89.25
71175;DHT22;58876;51.994;4.472;2024-01-30T13:51:47;9.12;88.55
71175;DHT22;58876;51.994;4.472;2024-01-30T13:54:12;8.99;88.76
71175;DHT22;58876;51.994;4.472;2024-01-30T13:56:38;8.80;88.99
71175;DHT22;58876;51.994;4.472;2024-01-30T13:59:03;8.83;89.52
71175;DHT22;58876;51.994;4.472;2024-01-30T14:01:31;8.79;89.32
71175;DHT22;58876;51.994;4.472;2024-01-30T14:03:57;8.90;89.55
71175;DHT22;58876;51.994;4.472;2024-01-30T14:06:23;8.93;89.10
71175;DHT22;58876;51.994;4.472;2024-01-30T14:08:48;9.03;88.98
71175;DHT22;58876;51.994;4.472;2024-01-30T14:11:14;8.89;88.88
71175;DHT22;58876;51.994;4.472;2024-01-30T14:13:39;8.87;88.91
71175;DHT22;58876;51.994;4.472;2024-01-30T14:16:05;8.93;88.94
71175;DHT22;58876;51.994;4.472;2024-01-30T14:18:31;8.97;88.74
71175;DHT22;58876;51.994;4.472;2024-01-30T14:20:56;9.06;88.52
71175;DHT22;58876;51.994;4.472;2024-01-30T14:23:21;8.99;88.61
71175;DHT22;58876;51.994;4.472;2024-01-30T14:25:47;9.00;88.79
71175;DHT22;58876;51.994;4.472;2024-01-30T14:28:12;8.92;89.11
71175;DHT22;58876;51.994;4.472;2024-01-30T14:30:38;8.83;88.83
71175;DHT22;58876;51.994;4.472;2024-01-30T14:33:03;8.92;89.11
71175;DHT22;58876;51.994;4.472;2024-01-30T14:35:29;9.04;88.52
71175;DHT22;58876;51.994;4.472;2024-01-30T14:37:55;9.02;88.57
71175;DHT22;58876;51.994;4.472;2024-01-30T14:40:20;9.03;88.48
71175;DHT22;58876;51.994;4.472;2024-01-30T14:42:46;9.02;88.50
71175;DHT22;58876;51.994;4.472;2024-01-30T14:45:12;8.93;88.43
71175;DHT22;58876;51.994;4.472;2024-01-30T14:47:40;8.90;88.87
71175;DHT22;58876;51.994;4.472;2024-01-30T14:50:06;8.76;89.26
71175;DHT22;58876;51.994;4.472;2024-01-30T14:52:33;8.72;89.64
71175;DHT22;58876;51.994;4.472;2024-01-30T14:54:59;8.90;89.29
71175;DHT22;58876;51.994;4.472;2024-01-30T14:57:25;9.02;88.77
71175;DHT22;58876;51.994;4.472;2024-01-30T14:59:50;8.94;88.78
71175;DHT22;58876;51.994;4.472;2024-01-30T15:02:16;8.89;89.01
71175;DHT22;58876;51.994;4.472;2024-01-30T15:04:42;8.76;89.32
71175;DHT22;58876;51.994;4.472;2024-01-30T15:07:08;8.80;89.33
71175;DHT22;58876;51.994;4.472;2024-01-30T15:09:33;8.92;89.49
71175;DHT22;58876;51.994;4.472;2024-01-30T15:12:02;8.90;89.03
71175;DHT22;58876;51.994;4.472;2024-01-30T15:14:28;8.62;90.33
71175;DHT22;58876;51.994;4.472;2024-01-30T15:16:53;8.73;89.80
71175;DHT22;58876;51.994;4.472;2024-01-30T15:19:19;8.44;90.68
71175;DHT22;58876;51.994;4.472;2024-01-30T15:21:44;8.94;89.08
71175;DHT22;58876;51.994;4.472;2024-01-30T15:24:09;8.97;88.61
71175;DHT22;58876;51.994;4.472;2024-01-30T15:26:38;9.12;88.17
71175;DHT22;58876;51.994;4.472;2024-01-30T15:29:03;9.02;88.47
71175;DHT22;58876;51.994;4.472;2024-01-30T15:31:29;9.27;88.16